createdAt,value
2023-03-23T15:59:45.855Z,19.52
2023-03-23T16:02:50.117Z,19.40
2023-03-23T16:05:52.396Z,19.32
2023-03-23T16:08:55.805Z,19.25
2023-03-23T16:11:58.306Z,19.17
2023-03-23T16:15:00.785Z,19.11
2023-03-23T16:18:03.231Z,19.10
2023-03-23T16:21:05.780Z,19.15
2023-03-23T16:24:08.850Z,19.03
2023-03-23T16:27:14.048Z,19.06
2023-03-23T16:30:19.501Z,18.91
2023-03-23T16:33:22.488Z,18.95
2023-03-23T16:36:24.830Z,18.86
2023-03-23T16:39:27.319Z,18.78
2023-03-23T16:42:29.818Z,18.79
2023-03-23T16:45:32.114Z,18.83
2023-03-23T16:48:34.416Z,18.71
2023-03-23T16:51:36.824Z,18.62
2023-03-23T16:54:39.154Z,18.56
2023-03-23T16:57:43.334Z,18.46
2023-03-23T17:00:48.927Z,18.42
2023-03-23T17:03:51.318Z,18.42
2023-03-23T17:06:54.323Z,18.36
2023-03-23T17:09:56.642Z,18.30
2023-03-23T17:12:59.497Z,18.19
2023-03-23T17:16:01.785Z,18.14
2023-03-23T17:19:04.464Z,18.14
2023-03-23T17:22:06.687Z,18.06
2023-03-23T17:25:10.101Z,17.95
2023-03-23T17:28:12.382Z,17.89
2023-03-23T17:31:14.767Z,17.88
2023-03-23T17:34:18.745Z,17.83
2023-03-23T17:37:22.008Z,17.87
2023-03-23T17:40:24.313Z,17.83
2023-03-23T17:43:26.593Z,17.75
2023-03-23T17:46:28.860Z,17.73
2023-03-23T17:49:31.248Z,17.72
2023-03-23T17:52:33.635Z,17.74
2023-03-23T17:55:36.243Z,17.75
2023-03-23T17:58:38.542Z,17.76
2023-03-23T18:01:40.931Z,17.80
2023-03-23T18:04:43.299Z,17.80
2023-03-23T18:07:45.888Z,17.76
2023-03-23T18:10:49.235Z,17.77
2023-03-23T18:13:51.547Z,17.71
2023-03-23T18:16:53.994Z,17.52
2023-03-23T18:19:56.500Z,17.48
2023-03-23T18:22:58.814Z,17.46
2023-03-23T18:26:05.580Z,17.52
2023-03-23T18:29:07.832Z,17.47
2023-03-23T18:32:10.128Z,17.50
2023-03-23T18:35:12.724Z,17.50
2023-03-23T18:38:15.135Z,17.46
2023-03-23T18:41:18.323Z,17.50
2023-03-23T18:44:20.699Z,17.46
2023-03-23T18:47:23.061Z,17.42
2023-03-23T18:50:25.326Z,17.41
2023-03-23T18:53:28.238Z,17.47
2023-03-23T18:56:30.575Z,17.42
2023-03-23T18:59:34.591Z,17.34
2023-03-23T19:02:39.399Z,17.33
2023-03-23T19:05:42.590Z,17.24
2023-03-23T19:08:45.888Z,17.22
2023-03-23T19:11:48.261Z,17.22
2023-03-23T19:14:51.700Z,17.09
2023-03-23T19:17:56.249Z,17.08
2023-03-23T19:24:04.709Z,17.03
2023-03-23T19:27:08.135Z,16.99
2023-03-23T19:30:10.955Z,16.86
2023-03-23T19:33:13.904Z,16.72
2023-03-23T19:36:16.849Z,16.77
2023-03-23T19:39:19.236Z,16.78
2023-03-23T19:42:21.606Z,16.66
2023-03-23T19:45:23.865Z,16.72
2023-03-23T19:48:26.250Z,16.69
2023-03-23T19:51:28.712Z,16.70
2023-03-23T19:54:31.581Z,16.65
2023-03-23T19:57:35.419Z,16.64
2023-03-23T20:00:38.131Z,16.64
2023-03-23T20:07:11.286Z,16.58
2023-03-23T20:10:25.858Z,16.52
2023-03-23T20:13:28.359Z,16.49
2023-03-23T20:16:31.334Z,16.48
2023-03-23T20:22:36.762Z,16.46
2023-03-23T20:25:39.038Z,16.49
2023-03-23T20:28:42.692Z,16.48
2023-03-23T20:31:46.570Z,16.45
2023-03-23T20:34:49.506Z,16.44
2023-03-23T20:37:52.783Z,16.42
2023-03-23T20:40:56.967Z,16.33
2023-03-23T20:43:59.785Z,16.28
2023-03-23T20:47:03.260Z,16.22
2023-03-23T20:50:07.357Z,16.21
2023-03-23T20:53:09.703Z,16.18
2023-03-23T20:56:12.059Z,16.19
2023-03-23T20:59:15.490Z,16.17
2023-03-23T21:02:19.026Z,16.18
2023-03-23T21:05:21.514Z,16.15
2023-03-23T21:08:23.915Z,16.11
2023-03-23T21:11:27.303Z,16.12
2023-03-23T21:14:29.532Z,16.01
2023-03-23T21:17:31.840Z,15.94
2023-03-23T21:20:34.871Z,15.89
2023-03-23T21:23:38.398Z,15.83
2023-03-23T21:26:40.753Z,15.74
2023-03-23T21:29:43.011Z,15.66
2023-03-23T21:32:45.310Z,15.59
2023-03-23T21:35:47.650Z,15.54
2023-03-23T21:38:50.250Z,15.55
2023-03-23T21:41:52.530Z,15.49
2023-03-23T21:44:56.592Z,15.48
2023-03-23T21:48:00.094Z,15.48
2023-03-23T21:51:09.939Z,15.48
2023-03-23T21:54:12.589Z,15.50
2023-03-23T21:57:15.035Z,15.48
2023-03-23T22:00:18.875Z,15.48
2023-03-23T22:03:25.521Z,15.36
2023-03-23T22:06:28.581Z,15.29
2023-03-23T22:09:30.985Z,15.27
2023-03-23T22:12:33.309Z,15.23
2023-03-23T22:15:35.699Z,15.16
2023-03-23T22:18:38.969Z,15.16
2023-03-23T22:21:41.862Z,15.18
2023-03-23T22:24:44.063Z,15.04
2023-03-23T22:27:47.052Z,14.98
2023-03-23T22:30:49.307Z,14.98
2023-03-23T22:33:56.048Z,15.01
2023-03-23T22:36:58.535Z,14.99
2023-03-23T22:40:00.822Z,15.02
2023-03-23T22:43:03.764Z,15.07
2023-03-23T22:46:06.500Z,15.11
2023-03-23T22:49:08.936Z,15.13
2023-03-23T22:52:11.231Z,15.16
2023-03-23T22:55:13.560Z,15.21
2023-03-23T22:58:16.836Z,15.17
2023-03-23T23:01:21.020Z,15.10
2023-03-23T23:04:23.777Z,14.97
2023-03-23T23:07:26.271Z,14.83
2023-03-23T23:10:28.649Z,14.77
2023-03-23T23:13:33.136Z,14.73
2023-03-23T23:16:35.654Z,14.75
2023-03-23T23:19:38.093Z,14.78
2023-03-23T23:22:40.969Z,14.78
2023-03-23T23:25:44.075Z,14.77
2023-03-23T23:28:46.772Z,14.69
2023-03-23T23:31:49.058Z,14.55
2023-03-23T23:34:53.042Z,14.53
2023-03-23T23:37:55.419Z,14.56
2023-03-23T23:40:58.438Z,14.62
2023-03-23T23:44:00.716Z,14.66
2023-03-23T23:47:03.207Z,14.65
2023-03-23T23:50:07.371Z,14.67
2023-03-23T23:53:10.954Z,14.68
2023-03-23T23:56:14.187Z,14.70
2023-03-23T23:59:17.117Z,14.69
